createdAt,value
2022-11-08T00:00:46.993Z,96299.06
2022-11-08T00:03:16.027Z,96299.31
2022-11-08T00:06:03.334Z,96297.78
2022-11-08T00:08:50.623Z,96302.78
2022-11-08T00:11:37.949Z,96309.09
2022-11-08T00:14:06.772Z,96303.06
2022-11-08T00:16:35.701Z,96300.97
2022-11-08T00:19:04.537Z,96306.22
2022-11-08T00:21:33.325Z,96304.91
2022-11-08T00:24:02.223Z,96312.31
2022-11-08T00:26:30.974Z,96310.44
2022-11-08T00:29:00.005Z,96316.00
2022-11-08T00:31:28.777Z,96316.53
2022-11-08T00:33:57.552Z,96326.00
2022-11-08T00:36:26.390Z,96328.13
2022-11-08T00:38:55.197Z,96323.13
2022-11-08T00:41:24.251Z,96325.75
2022-11-08T00:43:53.062Z,96325.75
2022-11-08T00:46:21.866Z,96330.22
2022-11-08T00:48:50.698Z,96331.28
2022-11-08T00:51:19.488Z,96342.34
2022-11-08T00:53:48.299Z,96334.16
2022-11-08T00:56:17.976Z,96334.16
2022-11-08T00:58:46.796Z,96330.22
2022-11-08T01:01:20.183Z,96331.53
2022-11-08T01:03:50.350Z,96338.91
2022-11-08T01:06:21.400Z,96334.19
2022-11-08T01:08:50.873Z,96334.44
2022-11-08T01:11:22.934Z,96333.13
2022-11-08T01:13:52.675Z,96339.44
2022-11-08T01:16:24.240Z,96344.72
2022-11-08T01:18:55.148Z,96335.25
2022-11-08T01:21:24.082Z,96342.06
2022-11-08T01:23:54.796Z,96337.56
2022-11-08T01:26:29.998Z,96343.63
2022-11-08T01:28:59.376Z,96345.16
2022-11-08T01:31:30.834Z,96346.75
2022-11-08T01:34:00.551Z,96347.00
2022-11-08T01:36:30.411Z,96346.16
2022-11-08T01:38:59.290Z,96338.72
2022-11-08T01:41:28.516Z,96339.09
2022-11-08T01:43:59.585Z,96341.41
2022-11-08T01:46:42.469Z,96333.66
2022-11-08T01:49:39.002Z,96345.41
2022-11-08T01:52:10.644Z,96351.72
2022-11-08T01:55:06.875Z,96353.31
2022-11-08T01:57:41.284Z,96352.53
2022-11-08T02:00:16.861Z,96353.22
2022-11-08T02:02:57.615Z,96353.16
2022-11-08T02:05:29.259Z,96355.00
2022-11-08T02:08:09.320Z,96355.00
2022-11-08T02:10:41.273Z,96362.22
2022-11-08T02:13:14.906Z,96359.13
2022-11-08T02:15:44.789Z,96366.84
2022-11-08T02:18:15.869Z,96366.34
2022-11-08T02:21:01.565Z,96359.34
2022-11-08T02:23:55.421Z,96346.69
2022-11-08T02:26:28.758Z,96349.84
2022-11-08T02:28:57.872Z,96352.81
2022-11-08T02:31:26.561Z,96355.03
2022-11-08T02:33:55.362Z,96357.44
2022-11-08T02:36:25.750Z,96369.56
2022-11-08T02:38:58.204Z,96367.19
2022-11-08T02:41:27.095Z,96364.72
2022-11-08T02:43:57.608Z,96366.03
2022-11-08T02:46:26.389Z,96369.19
2022-11-08T02:48:55.209Z,96366.38
2022-11-08T02:51:23.908Z,96369.84
2022-11-08T02:53:52.625Z,96364.72
2022-11-08T02:56:21.370Z,96370.81
2022-11-08T02:58:50.454Z,96364.91
2022-11-08T03:01:20.560Z,96369.38
2022-11-08T03:03:49.705Z,96376.31
2022-11-08T03:06:18.608Z,96375.16
2022-11-08T03:08:47.338Z,96375.97
2022-11-08T03:11:16.239Z,96377.13
2022-11-08T03:13:45.002Z,96377.53
2022-11-08T03:16:13.760Z,96380.38
2022-11-08T03:18:42.489Z,96367.22
2022-11-08T03:21:11.329Z,96375.84
2022-11-08T03:23:40.254Z,96380.38
2022-11-08T03:26:08.968Z,96379.13
2022-11-08T03:28:37.747Z,96371.47
2022-11-08T03:31:06.613Z,96367.63
2022-11-08T03:33:35.449Z,96374.09
2022-11-08T03:36:04.488Z,96358.13
2022-11-08T03:38:33.568Z,96375.19
2022-11-08T03:41:02.313Z,96376.91
2022-11-08T03:43:31.087Z,96384.16
2022-11-08T03:45:59.944Z,96380.63
2022-11-08T03:48:28.699Z,96371.81
2022-11-08T03:50:57.461Z,96378.31
2022-11-08T03:53:26.253Z,96391.84
2022-11-08T03:55:54.986Z,96376.44
2022-11-08T03:58:23.737Z,96392.25
2022-11-08T04:00:53.679Z,96380.63
2022-11-08T04:03:22.582Z,96371.28
2022-11-08T04:05:51.340Z,96379.53
2022-11-08T04:08:20.433Z,96388.97
2022-11-08T04:10:49.298Z,96383.84
2022-11-08T04:13:36.395Z,96384.91
2022-11-08T04:16:05.502Z,96398.00
2022-11-08T04:18:52.521Z,96389.13
2022-11-08T04:21:22.861Z,96386.53
2022-11-08T04:23:53.370Z,96378.09
2022-11-08T04:26:22.786Z,96371.13
2022-11-08T04:28:51.529Z,96392.84
2022-11-08T04:31:21.092Z,96391.72
2022-11-08T04:33:49.909Z,96390.09
2022-11-08T04:36:18.943Z,96387.00
2022-11-08T04:38:51.751Z,96373.59
2022-11-08T04:41:26.010Z,96387.56
2022-11-08T04:43:57.982Z,96373.50
2022-11-08T04:46:29.044Z,96391.16
2022-11-08T04:49:00.770Z,96401.25
2022-11-08T04:51:34.310Z,96394.91
2022-11-08T04:54:05.592Z,96396.19
2022-11-08T04:56:34.457Z,96400.69
2022-11-08T04:59:05.273Z,96400.59
2022-11-08T05:01:37.964Z,96393.59
2022-11-08T05:04:07.110Z,96388.16
2022-11-08T05:06:35.845Z,96398.75
2022-11-08T05:09:04.889Z,96400.69
2022-11-08T05:11:33.739Z,96398.03
2022-11-08T05:14:02.566Z,96401.13
2022-11-08T05:16:32.992Z,96402.69
2022-11-08T05:19:02.067Z,96406.69
2022-11-08T05:21:49.477Z,96422.28
2022-11-08T05:24:19.123Z,96412.84
2022-11-08T05:26:49.449Z,96413.91
2022-11-08T05:29:18.317Z,96382.06
2022-11-08T05:31:47.050Z,96396.53
2022-11-08T05:34:15.799Z,96421.72
2022-11-08T05:36:44.632Z,96409.81
2022-11-08T05:39:13.445Z,96405.03
2022-11-08T05:41:42.250Z,96413.16
2022-11-08T05:44:10.989Z,96406.81
2022-11-08T05:46:39.705Z,96418.19
2022-11-08T05:49:08.380Z,96410.31
2022-11-08T05:51:37.222Z,96419.91
2022-11-08T05:54:06.321Z,96419.59
2022-11-08T05:56:35.100Z,96430.38
2022-11-08T05:59:03.853Z,96412.91
2022-11-08T06:01:33.469Z,96424.94
2022-11-08T06:04:03.100Z,96418.31
2022-11-08T06:06:31.910Z,96420.81
2022-11-08T06:09:00.748Z,96425.69
2022-11-08T06:11:29.723Z,96427.38
2022-11-08T06:13:58.514Z,96430.28
2022-11-08T06:16:27.301Z,96430.75
2022-11-08T06:18:56.157Z,96434.19
2022-11-08T06:21:26.894Z,96428.06
2022-11-08T06:23:55.961Z,96424.31
2022-11-08T06:26:25.055Z,96426.53
2022-11-08T06:28:53.786Z,96426.03
2022-11-08T06:31:22.493Z,96427.44
2022-11-08T06:33:51.529Z,96421.47
2022-11-08T06:36:22.075Z,96430.69
2022-11-08T06:38:55.757Z,96442.34
2022-11-08T06:41:32.842Z,96425.44
2022-11-08T06:44:03.944Z,96441.03
2022-11-08T06:46:32.681Z,96434.69
2022-11-08T06:49:01.418Z,96426.47
2022-11-08T06:51:30.577Z,96433.88
2022-11-08T06:53:59.906Z,96439.09
2022-11-08T06:56:28.589Z,96440.16
2022-11-08T06:58:57.359Z,96441.38
2022-11-08T07:01:27.099Z,96413.69
2022-11-08T07:03:56.496Z,96439.41
2022-11-08T07:06:25.287Z,96430.13
2022-11-08T07:08:54.028Z,96438.25
2022-11-08T07:11:22.789Z,96440.38
2022-11-08T07:13:51.496Z,96440.63
2022-11-08T07:16:20.241Z,96433.34
2022-11-08T07:18:51.318Z,96439.88
2022-11-08T07:21:20.219Z,96430.38
2022-11-08T07:23:49.269Z,96427.66
2022-11-08T07:26:18.559Z,96437.13
2022-11-08T07:28:47.306Z,96430.94
2022-11-08T07:31:16.239Z,96436.28
2022-11-08T07:33:44.990Z,96426.94
2022-11-08T07:36:13.852Z,96444.06
2022-11-08T07:38:42.945Z,96451.03
2022-11-08T07:41:12.049Z,96456.81
2022-11-08T07:43:40.852Z,96449.34
2022-11-08T07:46:17.525Z,96446.03
2022-11-08T07:48:46.279Z,96451.53
2022-11-08T07:51:15.109Z,96454.44
2022-11-08T07:53:45.379Z,96448.38
2022-11-08T07:56:14.142Z,96460.78
2022-11-08T07:58:42.912Z,96463.03
2022-11-08T08:01:12.807Z,96466.84
2022-11-08T08:03:41.755Z,96466.78
2022-11-08T08:06:10.587Z,96468.56
2022-11-08T08:08:39.311Z,96469.66
2022-11-08T08:11:08.121Z,96462.66
2022-11-08T08:13:36.910Z,96466.47
2022-11-08T08:16:05.921Z,96467.00
2022-11-08T08:18:34.727Z,96471.13
2022-11-08T08:21:03.622Z,96477.28
2022-11-08T08:23:32.389Z,96477.44
2022-11-08T08:26:03.823Z,96479.03
2022-11-08T08:28:32.717Z,96475.59
2022-11-08T08:31:01.542Z,96485.91
2022-11-08T08:33:30.367Z,96481.06
2022-11-08T08:36:01.577Z,96488.09
2022-11-08T08:38:35.018Z,96485.28
2022-11-08T08:41:04.919Z,96488.22
2022-11-08T08:43:33.876Z,96481.31
2022-11-08T08:46:04.737Z,96490.75
2022-11-08T08:48:34.196Z,96492.41
2022-11-08T08:51:03.059Z,96496.75
2022-11-08T08:53:31.899Z,96501.03
2022-11-08T08:56:02.886Z,96509.38
2022-11-08T08:58:31.764Z,96507.44
2022-11-08T09:03:52.507Z,96518.38
2022-11-08T09:06:21.434Z,96498.97
2022-11-08T09:08:50.301Z,96513.91
2022-11-08T09:11:19.419Z,96512.22
2022-11-08T09:13:48.244Z,96523.31
2022-11-08T09:16:17.049Z,96516.75
2022-11-08T09:18:45.918Z,96513.66
2022-11-08T09:21:14.760Z,96521.31
2022-11-08T09:23:43.559Z,96520.09
2022-11-08T09:26:12.959Z,96535.69
2022-11-08T09:28:41.753Z,96537.84
2022-11-08T09:31:12.258Z,96543.13
2022-11-08T09:33:42.427Z,96541.56
2022-11-08T09:36:14.628Z,96550.53
2022-11-08T09:38:43.586Z,96551.59
2022-11-08T09:41:17.252Z,96556.34
2022-11-08T09:44:08.732Z,96552.13
2022-11-08T09:46:40.646Z,96563.19
2022-11-08T09:49:17.217Z,96557.38
2022-11-08T09:51:46.122Z,96554.22
2022-11-08T09:54:27.633Z,96563.19
2022-11-08T09:56:56.448Z,96568.19
2022-11-08T09:59:45.092Z,96574.00
2022-11-08T10:02:19.964Z,96579.56
2022-11-08T10:04:57.901Z,96559.50
2022-11-08T10:08:04.754Z,96581.13
2022-11-08T10:10:57.703Z,96587.19
2022-11-08T10:13:43.085Z,96595.13
2022-11-08T10:16:29.541Z,96585.09
2022-11-08T10:19:35.629Z,96593.00
2022-11-08T10:22:37.199Z,96588.50
2022-11-08T10:25:20.167Z,96586.13
2022-11-08T10:27:52.003Z,96585.88
2022-11-08T10:30:24.008Z,96587.44
2022-11-08T10:32:57.142Z,96586.88
2022-11-08T10:36:12.337Z,96584.78
2022-11-08T10:38:44.956Z,96590.03
2022-11-08T10:41:42.654Z,96593.19
2022-11-08T10:44:17.957Z,96584.69
2022-11-08T10:47:08.477Z,96599.13
2022-11-08T10:49:43.076Z,96597.78
2022-11-08T10:52:39.017Z,96608.84
2022-11-08T10:55:27.988Z,96602.25
2022-11-08T10:57:56.914Z,96602.50
2022-11-08T11:00:30.191Z,96595.88
2022-11-08T11:03:12.091Z,96605.03
2022-11-08T11:05:59.429Z,96601.84
2022-11-08T11:08:29.619Z,96601.28
2022-11-08T11:11:23.396Z,96598.06
2022-11-08T11:14:19.476Z,96609.59
2022-11-08T11:17:17.011Z,96605.84
2022-11-08T11:19:57.108Z,96607.13
2022-11-08T11:22:36.311Z,96604.16
2022-11-08T11:25:15.000Z,96601.72
2022-11-08T11:27:44.642Z,96603.03
2022-11-08T11:30:19.213Z,96605.16
2022-11-08T11:33:24.019Z,96617.94
2022-11-08T11:35:58.562Z,96625.94
2022-11-08T11:38:45.999Z,96623.94
2022-11-08T11:41:20.398Z,96631.66
2022-11-08T11:43:55.013Z,96629.88
2022-11-08T11:46:51.748Z,96630.72
2022-11-08T11:49:22.320Z,96630.81
2022-11-08T11:51:57.298Z,96629.81
2022-11-08T11:54:31.209Z,96624.34
2022-11-08T11:57:05.956Z,96634.44
2022-11-08T11:59:34.756Z,96634.72
2022-11-08T12:02:29.074Z,96629.22
2022-11-08T12:05:13.757Z,96633.72
2022-11-08T12:08:22.212Z,96625.28
2022-11-08T12:11:01.426Z,96635.34
2022-11-08T12:13:54.097Z,96630.59
2022-11-08T12:16:48.104Z,96633.78
2022-11-08T12:19:49.217Z,96629.84
2022-11-08T12:22:33.355Z,96633.81
2022-11-08T12:25:06.525Z,96634.34
2022-11-08T12:27:56.482Z,96630.63
2022-11-08T12:30:37.659Z,96629.34
2022-11-08T12:33:27.765Z,96632.22
2022-11-08T12:35:59.818Z,96632.22
2022-11-08T12:39:10.649Z,96628.25
2022-11-08T12:41:45.878Z,96631.94
2022-11-08T12:44:26.599Z,96630.34
2022-11-08T12:47:21.928Z,96621.63
2022-11-08T12:49:56.817Z,96644.34
2022-11-08T12:52:37.532Z,96647.50
2022-11-08T12:55:14.519Z,96649.84
2022-11-08T12:57:43.637Z,96641.69
2022-11-08T13:00:19.907Z,96639.88
2022-11-08T13:03:21.149Z,96644.09
2022-11-08T13:06:22.546Z,96641.69
2022-11-08T13:09:02.551Z,96641.16
2022-11-08T13:12:04.400Z,96637.75
2022-11-08T13:14:40.987Z,96627.97
2022-11-08T13:17:15.972Z,96645.66
2022-11-08T13:19:47.508Z,96644.84
2022-11-08T13:22:34.134Z,96640.41
2022-11-08T13:25:03.655Z,96634.03
2022-11-08T13:27:43.509Z,96634.03
2022-11-08T13:30:12.289Z,96637.50
2022-11-08T13:32:44.208Z,96640.41
2022-11-08T13:35:33.256Z,96630.09
2022-11-08T13:38:04.802Z,96639.31
2022-11-08T13:40:43.061Z,96646.72
2022-11-08T13:43:23.624Z,96635.59
2022-11-08T13:45:53.126Z,96643.28
2022-11-08T13:48:25.413Z,96646.94
2022-11-08T13:50:54.536Z,96649.84
2022-11-08T13:53:23.271Z,96651.16
2022-11-08T13:55:57.888Z,96657.22
2022-11-08T13:58:43.122Z,96653.53
2022-11-08T14:01:20.051Z,96656.44
2022-11-08T14:03:48.991Z,96663.28
2022-11-08T14:06:29.722Z,96661.97
2022-11-08T14:09:08.388Z,96663.00
2022-11-08T14:12:01.844Z,96661.72
2022-11-08T14:14:42.776Z,96669.09
2022-11-08T14:17:29.783Z,96666.19
2022-11-08T14:20:36.445Z,96681.22
2022-11-08T14:23:21.541Z,96673.84
2022-11-08T14:26:03.427Z,96679.13
2022-11-08T14:28:37.957Z,96685.97
2022-11-08T14:31:29.994Z,96688.34
2022-11-08T14:34:00.391Z,96689.13
2022-11-08T14:36:31.845Z,96699.44
2022-11-08T14:39:14.729Z,96695.19
2022-11-08T14:41:49.017Z,96672.19
2022-11-08T14:44:21.208Z,96674.81
2022-11-08T14:46:50.458Z,96673.78
2022-11-08T14:49:24.402Z,96692.84
2022-11-08T14:52:18.039Z,96694.97
2022-11-08T14:54:49.265Z,96696.03
2022-11-08T14:57:38.944Z,96698.13
2022-11-08T15:00:15.092Z,96710.25
2022-11-08T15:02:51.335Z,96713.41
2022-11-08T15:05:34.566Z,96715.50
2022-11-08T15:08:07.762Z,96718.13
2022-11-08T15:10:36.494Z,96709.38
2022-11-08T15:13:05.434Z,96717.84
2022-11-08T15:15:35.085Z,96716.50
2022-11-08T15:18:28.733Z,96739.50
2022-11-08T15:21:01.023Z,96736.09
2022-11-08T15:23:44.644Z,96744.81
2022-11-08T15:26:19.591Z,96741.91
2022-11-08T15:29:09.620Z,96742.94
2022-11-08T15:31:43.908Z,96742.94
2022-11-08T15:34:38.422Z,96741.34
2022-11-08T15:37:39.590Z,96738.50
2022-11-08T15:40:49.429Z,96742.69
2022-11-08T15:43:44.409Z,96749.28
2022-11-08T15:46:36.463Z,96751.38
2022-11-08T15:49:26.617Z,96744.50
2022-11-08T15:51:57.288Z,96722.31
2022-11-08T15:54:27.598Z,96751.66
2022-11-08T15:56:57.370Z,96752.94
2022-11-08T15:59:30.585Z,96756.88
2022-11-08T16:02:01.903Z,96758.44
2022-11-08T16:04:31.478Z,96758.16
2022-11-08T16:07:00.428Z,96758.41
2022-11-08T16:09:29.316Z,96760.00
2022-11-08T16:11:58.107Z,96751.56
2022-11-08T16:14:26.910Z,96753.13
2022-11-08T16:16:55.651Z,96752.09
2022-11-08T16:19:25.839Z,96757.66
2022-11-08T16:21:54.696Z,96750.53
2022-11-08T16:24:23.436Z,96756.09
2022-11-08T16:26:52.191Z,96758.47
2022-11-08T16:29:24.278Z,96753.19
2022-11-08T16:31:53.380Z,96749.19
2022-11-08T16:34:22.506Z,96746.75
2022-11-08T16:36:52.721Z,96734.06
2022-11-08T16:39:26.802Z,96730.38
2022-11-08T16:41:55.572Z,96704.97
2022-11-08T16:44:24.301Z,96736.16
2022-11-08T16:46:54.249Z,96727.44
2022-11-08T16:49:25.668Z,96729.50
2022-11-08T16:51:54.425Z,96727.66
2022-11-08T16:54:28.930Z,96713.88
2022-11-08T16:57:20.780Z,96724.94
2022-11-08T16:59:46.616Z,96722.81
2022-11-08T17:02:28.815Z,96724.94
2022-11-08T17:04:57.784Z,96726.22
2022-11-08T17:07:28.735Z,96725.41
2022-11-08T17:09:57.509Z,96720.09
2022-11-08T17:12:26.513Z,96727.13
2022-11-08T17:14:56.764Z,96724.91
2022-11-08T17:17:25.513Z,96729.78
2022-11-08T17:19:55.364Z,96733.16
2022-11-08T17:22:24.112Z,96733.84
2022-11-08T17:24:52.904Z,96739.88
2022-11-08T17:27:21.682Z,96733.78
2022-11-08T17:29:50.431Z,96736.13
2022-11-08T17:32:19.206Z,96740.84
2022-11-08T17:34:47.898Z,96747.41
2022-11-08T17:37:17.451Z,96723.97
2022-11-08T17:39:46.182Z,96740.38
2022-11-08T17:42:15.038Z,96732.44
2022-11-08T17:44:43.818Z,96728.63
2022-11-08T17:47:12.599Z,96736.75
2022-11-08T17:49:44.054Z,96744.59
2022-11-08T17:52:13.000Z,96744.25
2022-11-08T17:54:41.916Z,96746.56
2022-11-08T17:57:10.726Z,96747.84
2022-11-08T17:59:39.821Z,96739.28
2022-11-08T18:02:10.724Z,96743.03
2022-11-08T18:04:40.075Z,96755.44
2022-11-08T18:07:09.176Z,96757.81
2022-11-08T18:09:39.570Z,96754.19
2022-11-08T18:12:08.350Z,96749.56
2022-11-08T18:14:37.100Z,96754.91
2022-11-08T18:17:05.931Z,96766.84
2022-11-08T18:19:34.827Z,96760.53
2022-11-08T18:22:05.136Z,96754.53
2022-11-08T18:24:34.029Z,96759.56
2022-11-08T18:27:02.852Z,96767.81
2022-11-08T18:29:32.367Z,96758.09
2022-11-08T18:32:02.371Z,96760.53
2022-11-08T18:34:31.923Z,96766.03
2022-11-08T18:37:00.594Z,96764.19
2022-11-08T18:39:30.211Z,96754.91
2022-11-08T18:41:58.973Z,96772.03
2022-11-08T18:44:27.715Z,96767.53
2022-11-08T18:46:56.580Z,96759.25
2022-11-08T18:49:25.310Z,96765.63
2022-11-08T18:51:54.296Z,96765.94
2022-11-08T18:54:23.015Z,96769.34
2022-11-08T18:56:51.767Z,96769.13
2022-11-08T18:59:20.521Z,96763.00
2022-11-08T19:01:50.331Z,96765.41
2022-11-08T19:04:19.212Z,96758.34
2022-11-08T19:06:54.204Z,96765.78
2022-11-08T19:09:23.835Z,96770.09
2022-11-08T19:11:52.763Z,96762.16
2022-11-08T19:14:21.706Z,96776.69
2022-11-08T19:16:55.345Z,96775.91
2022-11-08T19:19:25.040Z,96758.69
2022-11-08T19:21:53.817Z,96777.47
2022-11-08T19:24:22.714Z,96784.28
2022-11-08T19:26:51.482Z,96770.03
2022-11-08T19:29:21.262Z,96776.84
2022-11-08T19:31:49.978Z,96772.41
2022-11-08T19:34:18.837Z,96772.63
2022-11-08T19:36:51.357Z,96779.53
2022-11-08T19:39:25.029Z,96773.72
2022-11-08T19:41:53.796Z,96774.81
2022-11-08T19:44:22.564Z,96775.03
2022-11-08T19:46:51.345Z,96774.53
2022-11-08T19:49:25.833Z,96771.94
2022-11-08T19:51:54.505Z,96777.97
2022-11-08T19:54:23.261Z,96777.69
2022-11-08T19:57:07.194Z,96776.31
2022-11-08T19:59:36.364Z,96777.00
2022-11-08T20:02:05.993Z,96777.47
2022-11-08T20:04:34.903Z,96773.28
2022-11-08T20:07:03.734Z,96780.88
2022-11-08T20:09:36.097Z,96778.72
2022-11-08T20:12:06.223Z,96771.00
2022-11-08T20:14:35.018Z,96765.38
2022-11-08T20:17:03.946Z,96759.75
2022-11-08T20:19:32.865Z,96768.41
2022-11-08T20:22:01.599Z,96760.13
2022-11-08T20:24:30.437Z,96767.16
2022-11-08T20:26:59.281Z,96776.56
2022-11-08T20:29:28.182Z,96778.88
2022-11-08T20:31:56.941Z,96770.72
2022-11-08T20:34:25.939Z,96769.13
2022-11-08T20:36:54.726Z,96766.50
2022-11-08T20:39:23.507Z,96770.47
2022-11-08T20:41:52.216Z,96776.56
2022-11-08T20:44:21.018Z,96744.88
2022-11-08T20:46:49.820Z,96763.69
2022-11-08T20:49:18.607Z,96765.28
2022-11-08T20:51:47.630Z,96768.38
2022-11-08T20:54:17.209Z,96778.09
2022-11-08T20:56:45.995Z,96775.41
2022-11-08T20:59:15.506Z,96774.22
2022-11-08T21:01:46.834Z,96783.34
2022-11-08T21:04:15.834Z,96778.25
2022-11-08T21:06:44.827Z,96772.44
2022-11-08T21:09:37.163Z,96771.91
2022-11-08T21:12:02.487Z,96772.38
2022-11-08T21:14:31.342Z,96783.06
2022-11-08T21:17:20.902Z,96770.34
2022-11-08T21:19:51.411Z,96767.53
2022-11-08T21:22:20.157Z,96776.41
2022-11-08T21:24:49.330Z,96781.81
2022-11-08T21:27:18.500Z,96785.94
2022-11-08T21:29:47.234Z,96777.34
2022-11-08T21:32:15.969Z,96777.56
2022-11-08T21:34:46.659Z,96776.38
2022-11-08T21:37:15.861Z,96779.47
2022-11-08T21:39:44.591Z,96773.91
2022-11-08T21:42:14.377Z,96765.16
2022-11-08T21:44:43.162Z,96774.34
2022-11-08T21:47:11.897Z,96776.28
2022-11-08T21:49:40.577Z,96777.06
2022-11-08T21:52:09.312Z,96773.91
2022-11-08T21:54:38.110Z,96775.41
2022-11-08T21:57:06.838Z,96773.91
2022-11-08T21:59:35.705Z,96782.81
2022-11-08T22:02:05.144Z,96780.09
2022-11-08T22:04:34.063Z,96770.06
2022-11-08T22:07:02.951Z,96776.25
2022-11-08T22:09:31.658Z,96773.63
2022-11-08T22:12:00.423Z,96769.88
2022-11-08T22:14:29.069Z,96777.75
2022-11-08T22:16:57.797Z,96775.38
2022-11-08T22:19:26.451Z,96781.97
2022-11-08T22:21:55.218Z,96778.81
2022-11-08T22:24:23.949Z,96781.88
2022-11-08T22:26:53.298Z,96780.31
2022-11-08T22:29:22.086Z,96787.94
2022-11-08T22:31:50.848Z,96777.81
2022-11-08T22:34:19.932Z,96788.75
2022-11-08T22:36:48.680Z,96789.94
2022-11-08T22:39:19.584Z,96792.56
2022-11-08T22:41:51.182Z,96795.88
2022-11-08T22:44:20.469Z,96796.81
2022-11-08T22:46:49.785Z,96801.47
2022-11-08T22:49:18.398Z,96799.56
2022-11-08T22:51:47.102Z,96801.84
2022-11-08T22:54:15.947Z,96811.78
2022-11-08T22:56:44.697Z,96800.50
2022-11-08T22:59:13.678Z,96812.56
2022-11-08T23:01:42.986Z,96809.16
2022-11-08T23:04:11.971Z,96814.06
2022-11-08T23:06:41.199Z,96813.34
2022-11-08T23:09:10.442Z,96813.03
2022-11-08T23:11:57.389Z,96811.44
2022-11-08T23:14:44.746Z,96816.81
2022-11-08T23:17:13.450Z,96809.19
2022-11-08T23:20:00.799Z,96810.66
2022-11-08T23:22:48.317Z,96807.97
2022-11-08T23:25:16.995Z,96804.81
2022-11-08T23:28:04.463Z,96808.91
2022-11-08T23:30:51.788Z,96808.25
2022-11-08T23:33:20.884Z,96811.28
2022-11-08T23:36:13.103Z,96821.56
2022-11-08T23:38:42.983Z,96817.81
2022-11-08T23:41:30.487Z,96820.53
2022-11-08T23:44:17.647Z,96813.03
2022-11-08T23:46:46.352Z,96819.41
2022-11-08T23:49:15.044Z,96815.28
2022-11-08T23:51:44.023Z,96824.75
2022-11-08T23:54:12.971Z,96822.13
2022-11-08T23:56:42.346Z,96825.78
2022-11-08T23:59:11.989Z,96829.63
